sensor_id;sensor_type;location;lat;lon;timestamp;P1;durP1;ratioP1;P2;durP2;ratioP2
3689;SDS011;1861;50.240;8.596;2023-05-07T00:01:08;1.40;;;1.30;;
3689;SDS011;1861;50.240;8.596;2023-05-07T00:03:37;1.20;;;1.10;;
3689;SDS011;1861;50.240;8.596;2023-05-07T00:06:05;3.47;;;1.13;;
3689;SDS011;1861;50.240;8.596;2023-05-07T00:08:33;2.10;;;1.00;;
3689;SDS011;1861;50.240;8.596;2023-05-07T00:11:02;3.67;;;1.00;;
3689;SDS011;1861;50.240;8.596;2023-05-07T00:13:30;1.37;;;0.97;;
3689;SDS011;1861;50.240;8.596;2023-05-07T00:16:03;2.50;;;1.20;;
3689;SDS011;1861;50.240;8.596;2023-05-07T00:18:31;1.40;;;0.90;;
3689;SDS011;1861;50.240;8.596;2023-05-07T00:20:59;1.40;;;1.10;;
3689;SDS011;1861;50.240;8.596;2023-05-07T00:23:27;2.60;;;1.13;;
3689;SDS011;1861;50.240;8.596;2023-05-07T00:25:55;1.77;;;1.10;;
3689;SDS011;1861;50.240;8.596;2023-05-07T00:28:23;1.63;;;1.23;;
3689;SDS011;1861;50.240;8.596;2023-05-07T00:30:52;1.20;;;0.97;;
3689;SDS011;1861;50.240;8.596;2023-05-07T00:33:21;1.00;;;0.90;;
3689;SDS011;1861;50.240;8.596;2023-05-07T00:35:49;2.33;;;1.00;;
3689;SDS011;1861;50.240;8.596;2023-05-07T00:38:18;1.20;;;1.07;;
3689;SDS011;1861;50.240;8.596;2023-05-07T00:40:46;2.57;;;1.37;;
3689;SDS011;1861;50.240;8.596;2023-05-07T00:43:14;1.57;;;1.27;;
3689;SDS011;1861;50.240;8.596;2023-05-07T00:45:42;3.37;;;1.10;;
3689;SDS011;1861;50.240;8.596;2023-05-07T00:48:10;1.03;;;0.90;;
3689;SDS011;1861;50.240;8.596;2023-05-07T00:50:42;1.53;;;1.10;;
3689;SDS011;1861;50.240;8.596;2023-05-07T00:53:10;1.40;;;1.30;;
3689;SDS011;1861;50.240;8.596;2023-05-07T00:55:39;1.90;;;1.10;;
3689;SDS011;1861;50.240;8.596;2023-05-07T00:58:07;1.63;;;1.00;;
3689;SDS011;1861;50.240;8.596;2023-05-07T01:00:36;1.10;;;1.00;;
3689;SDS011;1861;50.240;8.596;2023-05-07T01:03:04;2.00;;;1.20;;
3689;SDS011;1861;50.240;8.596;2023-05-07T01:05:33;9.30;;;1.77;;
3689;SDS011;1861;50.240;8.596;2023-05-07T01:08:04;1.60;;;1.30;;
3689;SDS011;1861;50.240;8.596;2023-05-07T01:10:32;1.40;;;1.30;;
3689;SDS011;1861;50.240;8.596;2023-05-07T01:13:00;1.30;;;1.10;;
3689;SDS011;1861;50.240;8.596;2023-05-07T01:15:29;1.27;;;1.00;;
3689;SDS011;1861;50.240;8.596;2023-05-07T01:17:57;1.00;;;0.90;;
3689;SDS011;1861;50.240;8.596;2023-05-07T01:20:31;1.10;;;1.00;;
3689;SDS011;1861;50.240;8.596;2023-05-07T01:23:00;1.53;;;1.10;;
3689;SDS011;1861;50.240;8.596;2023-05-07T01:25:30;1.40;;;1.10;;
3689;SDS011;1861;50.240;8.596;2023-05-07T01:28:00;1.63;;;1.27;;
3689;SDS011;1861;50.240;8.596;2023-05-07T01:30:32;1.53;;;1.10;;
3689;SDS011;1861;50.240;8.596;2023-05-07T01:33:04;1.27;;;1.17;;
3689;SDS011;1861;50.240;8.596;2023-05-07T01:35:37;2.97;;;1.30;;
3689;SDS011;1861;50.240;8.596;2023-05-07T01:38:10;4.00;;;0.97;;
3689;SDS011;1861;50.240;8.596;2023-05-07T01:40:39;2.50;;;1.10;;
3689;SDS011;1861;50.240;8.596;2023-05-07T01:43:08;2.27;;;0.97;;
3689;SDS011;1861;50.240;8.596;2023-05-07T01:45:38;1.20;;;1.10;;
3689;SDS011;1861;50.240;8.596;2023-05-07T01:48:07;2.30;;;0.93;;
3689;SDS011;1861;50.240;8.596;2023-05-07T01:50:37;1.30;;;1.07;;
3689;SDS011;1861;50.240;8.596;2023-05-07T01:53:06;1.10;;;1.00;;
3689;SDS011;1861;50.240;8.596;2023-05-07T01:55:35;6.00;;;1.10;;
3689;SDS011;1861;50.240;8.596;2023-05-07T01:58:04;1.00;;;0.90;;
3689;SDS011;1861;50.240;8.596;2023-05-07T02:00:32;1.33;;;1.23;;
3689;SDS011;1861;50.240;8.596;2023-05-07T02:03:00;1.40;;;1.10;;
3689;SDS011;1861;50.240;8.596;2023-05-07T02:05:37;1.00;;;0.90;;
3689;SDS011;1861;50.240;8.596;2023-05-07T02:08:15;1.67;;;1.57;;
3689;SDS011;1861;50.240;8.596;2023-05-07T02:10:44;1.43;;;1.07;;
3689;SDS011;1861;50.240;8.596;2023-05-07T02:13:12;1.73;;;1.00;;
3689;SDS011;1861;50.240;8.596;2023-05-07T02:15:40;1.23;;;1.13;;
3689;SDS011;1861;50.240;8.596;2023-05-07T02:18:09;1.10;;;1.00;;
3689;SDS011;1861;50.240;8.596;2023-05-07T02:20:37;1.30;;;1.03;;
3689;SDS011;1861;50.240;8.596;2023-05-07T02:23:05;1.87;;;1.30;;
3689;SDS011;1861;50.240;8.596;2023-05-07T02:25:33;2.20;;;1.10;;
3689;SDS011;1861;50.240;8.596;2023-05-07T02:28:03;1.50;;;1.40;;
3689;SDS011;1861;50.240;8.596;2023-05-07T02:30:57;1.67;;;1.40;;
3689;SDS011;1861;50.240;8.596;2023-05-07T02:33:27;1.73;;;1.30;;
3689;SDS011;1861;50.240;8.596;2023-05-07T02:35:55;1.83;;;1.30;;
3689;SDS011;1861;50.240;8.596;2023-05-07T02:38:24;1.77;;;1.20;;
3689;SDS011;1861;50.240;8.596;2023-05-07T02:40:52;3.10;;;1.30;;
3689;SDS011;1861;50.240;8.596;2023-05-07T02:43:21;1.30;;;1.13;;
3689;SDS011;1861;50.240;8.596;2023-05-07T02:45:49;1.30;;;1.00;;
3689;SDS011;1861;50.240;8.596;2023-05-07T02:48:27;1.60;;;1.20;;
3689;SDS011;1861;50.240;8.596;2023-05-07T02:50:55;3.23;;;1.30;;
3689;SDS011;1861;50.240;8.596;2023-05-07T02:53:24;2.73;;;1.10;;
3689;SDS011;1861;50.240;8.596;2023-05-07T02:55:52;1.13;;;1.03;;
3689;SDS011;1861;50.240;8.596;2023-05-07T02:58:22;1.40;;;1.10;;
3689;SDS011;1861;50.240;8.596;2023-05-07T03:00:50;1.47;;;1.13;;
3689;SDS011;1861;50.240;8.596;2023-05-07T03:03:30;1.77;;;1.10;;
3689;SDS011;1861;50.240;8.596;2023-05-07T03:05:58;1.73;;;1.30;;
3689;SDS011;1861;50.240;8.596;2023-05-07T03:08:26;3.23;;;1.50;;
3689;SDS011;1861;50.240;8.596;2023-05-07T03:10:54;1.23;;;1.10;;
3689;SDS011;1861;50.240;8.596;2023-05-07T03:13:23;3.53;;;1.10;;
3689;SDS011;1861;50.240;8.596;2023-05-07T03:15:52;2.50;;;1.37;;
3689;SDS011;1861;50.240;8.596;2023-05-07T03:18:20;3.00;;;1.40;;
3689;SDS011;1861;50.240;8.596;2023-05-07T03:20:48;1.10;;;0.93;;
3689;SDS011;1861;50.240;8.596;2023-05-07T03:23:17;1.40;;;1.17;;
3689;SDS011;1861;50.240;8.596;2023-05-07T03:25:47;2.40;;;1.10;;
3689;SDS011;1861;50.240;8.596;2023-05-07T03:28:16;2.43;;;1.63;;
3689;SDS011;1861;50.240;8.596;2023-05-07T03:30:53;2.70;;;1.30;;
3689;SDS011;1861;50.240;8.596;2023-05-07T03:33:21;1.23;;;1.13;;
3689;SDS011;1861;50.240;8.596;2023-05-07T03:35:49;2.50;;;1.33;;
3689;SDS011;1861;50.240;8.596;2023-05-07T03:38:22;1.30;;;1.20;;
3689;SDS011;1861;50.240;8.596;2023-05-07T03:40:50;1.47;;;1.13;;
3689;SDS011;1861;50.240;8.596;2023-05-07T03:43:18;1.87;;;1.40;;
3689;SDS011;1861;50.240;8.596;2023-05-07T03:45:53;1.40;;;1.27;;
3689;SDS011;1861;50.240;8.596;2023-05-07T03:48:24;1.43;;;1.20;;
3689;SDS011;1861;50.240;8.596;2023-05-07T03:50:55;1.57;;;1.10;;
3689;SDS011;1861;50.240;8.596;2023-05-07T03:53:28;2.50;;;1.47;;
3689;SDS011;1861;50.240;8.596;2023-05-07T03:55:56;1.80;;;1.37;;
3689;SDS011;1861;50.240;8.596;2023-05-07T03:58:24;1.90;;;1.47;;
3689;SDS011;1861;50.240;8.596;2023-05-07T04:00:57;1.57;;;1.30;;
3689;SDS011;1861;50.240;8.596;2023-05-07T04:03:27;1.37;;;1.10;;
3689;SDS011;1861;50.240;8.596;2023-05-07T04:05:58;1.50;;;1.40;;
3689;SDS011;1861;50.240;8.596;2023-05-07T04:08:26;2.43;;;1.50;;
3689;SDS011;1861;50.240;8.596;2023-05-07T04:10:55;1.60;;;1.10;;
3689;SDS011;1861;50.240;8.596;2023-05-07T04:13:25;1.27;;;1.10;;
3689;SDS011;1861;50.240;8.596;2023-05-07T04:15:54;4.67;;;1.20;;
3689;SDS011;1861;50.240;8.596;2023-05-07T04:18:26;2.90;;;1.40;;
3689;SDS011;1861;50.240;8.596;2023-05-07T04:20:54;1.50;;;1.40;;
3689;SDS011;1861;50.240;8.596;2023-05-07T04:23:22;1.50;;;1.40;;
3689;SDS011;1861;50.240;8.596;2023-05-07T04:25:51;1.70;;;1.43;;
3689;SDS011;1861;50.240;8.596;2023-05-07T04:28:37;2.20;;;1.63;;
3689;SDS011;1861;50.240;8.596;2023-05-07T04:31:06;1.83;;;1.30;;
3689;SDS011;1861;50.240;8.596;2023-05-07T04:33:37;1.60;;;1.50;;
3689;SDS011;1861;50.240;8.596;2023-05-07T04:36:09;1.83;;;1.57;;
3689;SDS011;1861;50.240;8.596;2023-05-07T04:38:44;2.63;;;1.60;;
3689;SDS011;1861;50.240;8.596;2023-05-07T04:41:12;3.33;;;1.27;;
3689;SDS011;1861;50.240;8.596;2023-05-07T04:43:42;2.17;;;1.40;;
3689;SDS011;1861;50.240;8.596;2023-05-07T04:46:11;1.10;;;1.00;;
3689;SDS011;1861;50.240;8.596;2023-05-07T04:48:41;1.97;;;1.30;;
3689;SDS011;1861;50.240;8.596;2023-05-07T04:51:10;1.27;;;1.03;;
3689;SDS011;1861;50.240;8.596;2023-05-07T04:53:38;1.33;;;1.23;;
3689;SDS011;1861;50.240;8.596;2023-05-07T04:56:07;4.30;;;1.30;;
3689;SDS011;1861;50.240;8.596;2023-05-07T04:58:40;1.50;;;1.40;;
3689;SDS011;1861;50.240;8.596;2023-05-07T05:01:09;1.87;;;1.30;;
3689;SDS011;1861;50.240;8.596;2023-05-07T05:03:38;2.90;;;1.53;;
3689;SDS011;1861;50.240;8.596;2023-05-07T05:06:08;1.47;;;1.17;;
3689;SDS011;1861;50.240;8.596;2023-05-07T05:08:38;2.10;;;1.90;;
3689;SDS011;1861;50.240;8.596;2023-05-07T05:11:06;2.03;;;1.20;;
3689;SDS011;1861;50.240;8.596;2023-05-07T05:13:35;1.20;;;1.10;;
3689;SDS011;1861;50.240;8.596;2023-05-07T05:16:14;2.20;;;1.30;;
3689;SDS011;1861;50.240;8.596;2023-05-07T05:18:42;1.57;;;1.30;;
3689;SDS011;1861;50.240;8.596;2023-05-07T05:21:15;1.20;;;1.10;;
3689;SDS011;1861;50.240;8.596;2023-05-07T05:23:45;3.30;;;1.40;;
3689;SDS011;1861;50.240;8.596;2023-05-07T05:26:17;2.47;;;1.37;;
3689;SDS011;1861;50.240;8.596;2023-05-07T05:28:47;2.33;;;1.50;;
3689;SDS011;1861;50.240;8.596;2023-05-07T05:31:19;1.57;;;1.47;;
3689;SDS011;1861;50.240;8.596;2023-05-07T05:33:49;2.90;;;1.63;;
3689;SDS011;1861;50.240;8.596;2023-05-07T05:36:18;1.70;;;1.60;;
3689;SDS011;1861;50.240;8.596;2023-05-07T05:38:48;1.20;;;1.10;;
3689;SDS011;1861;50.240;8.596;2023-05-07T05:41:16;2.13;;;1.20;;
3689;SDS011;1861;50.240;8.596;2023-05-07T05:43:44;1.83;;;1.50;;
3689;SDS011;1861;50.240;8.596;2023-05-07T05:46:13;1.40;;;1.30;;
3689;SDS011;1861;50.240;8.596;2023-05-07T05:48:41;1.73;;;1.33;;
3689;SDS011;1861;50.240;8.596;2023-05-07T05:51:10;1.87;;;1.50;;
3689;SDS011;1861;50.240;8.596;2023-05-07T05:53:40;3.90;;;1.70;;
3689;SDS011;1861;50.240;8.596;2023-05-07T05:56:08;3.60;;;1.73;;
3689;SDS011;1861;50.240;8.596;2023-05-07T05:58:37;1.30;;;1.20;;
3689;SDS011;1861;50.240;8.596;2023-05-07T06:01:07;2.40;;;1.80;;
3689;SDS011;1861;50.240;8.596;2023-05-07T06:03:36;1.83;;;1.73;;
3689;SDS011;1861;50.240;8.596;2023-05-07T06:06:10;1.60;;;1.50;;
3689;SDS011;1861;50.240;8.596;2023-05-07T06:08:40;4.43;;;2.00;;
3689;SDS011;1861;50.240;8.596;2023-05-07T06:11:10;3.33;;;1.83;;
3689;SDS011;1861;50.240;8.596;2023-05-07T06:13:41;1.53;;;1.30;;
3689;SDS011;1861;50.240;8.596;2023-05-07T06:16:09;4.23;;;1.80;;
3689;SDS011;1861;50.240;8.596;2023-05-07T06:18:37;1.57;;;1.47;;
3689;SDS011;1861;50.240;8.596;2023-05-07T06:21:06;2.97;;;1.87;;
3689;SDS011;1861;50.240;8.596;2023-05-07T06:23:34;5.00;;;1.90;;
3689;SDS011;1861;50.240;8.596;2023-05-07T06:26:05;2.40;;;1.67;;
3689;SDS011;1861;50.240;8.596;2023-05-07T06:28:38;4.13;;;2.00;;
3689;SDS011;1861;50.240;8.596;2023-05-07T06:31:13;3.17;;;1.60;;
3689;SDS011;1861;50.240;8.596;2023-05-07T06:33:49;2.57;;;2.30;;
3689;SDS011;1861;50.240;8.596;2023-05-07T06:36:18;1.70;;;1.60;;
3689;SDS011;1861;50.240;8.596;2023-05-07T06:38:46;3.57;;;2.33;;
3689;SDS011;1861;50.240;8.596;2023-05-07T06:41:16;2.40;;;1.80;;
3689;SDS011;1861;50.240;8.596;2023-05-07T06:43:44;2.87;;;2.07;;
3689;SDS011;1861;50.240;8.596;2023-05-07T06:46:25;2.53;;;2.10;;
3689;SDS011;1861;50.240;8.596;2023-05-07T06:48:53;2.17;;;1.97;;
3689;SDS011;1861;50.240;8.596;2023-05-07T06:51:21;2.50;;;2.03;;
3689;SDS011;1861;50.240;8.596;2023-05-07T06:53:49;9.03;;;2.20;;
3689;SDS011;1861;50.240;8.596;2023-05-07T06:56:19;3.90;;;1.63;;
3689;SDS011;1861;50.240;8.596;2023-05-07T06:58:49;2.23;;;1.73;;
3689;SDS011;1861;50.240;8.596;2023-05-07T07:01:17;2.63;;;1.90;;
3689;SDS011;1861;50.240;8.596;2023-05-07T07:03:46;1.83;;;1.73;;
3689;SDS011;1861;50.240;8.596;2023-05-07T07:06:15;2.13;;;2.03;;
3689;SDS011;1861;50.240;8.596;2023-05-07T07:08:43;4.20;;;2.03;;
3689;SDS011;1861;50.240;8.596;2023-05-07T07:11:14;2.33;;;2.07;;
3689;SDS011;1861;50.240;8.596;2023-05-07T07:13:44;1.73;;;1.63;;
3689;SDS011;1861;50.240;8.596;2023-05-07T07:16:12;3.47;;;2.13;;
3689;SDS011;1861;50.240;8.596;2023-05-07T07:18:40;2.57;;;2.23;;
3689;SDS011;1861;50.240;8.596;2023-05-07T07:21:08;2.23;;;2.00;;
3689;SDS011;1861;50.240;8.596;2023-05-07T07:23:36;3.57;;;2.60;;
3689;SDS011;1861;50.240;8.596;2023-05-07T07:26:05;2.37;;;2.17;;
3689;SDS011;1861;50.240;8.596;2023-05-07T07:28:33;1.90;;;1.80;;
3689;SDS011;1861;50.240;8.596;2023-05-07T07:31:02;2.77;;;2.17;;
3689;SDS011;1861;50.240;8.596;2023-05-07T07:33:31;2.73;;;2.47;;
3689;SDS011;1861;50.240;8.596;2023-05-07T07:35:59;2.30;;;2.10;;
3689;SDS011;1861;50.240;8.596;2023-05-07T07:38:27;3.00;;;2.10;;
3689;SDS011;1861;50.240;8.596;2023-05-07T07:40:55;2.50;;;2.10;;
3689;SDS011;1861;50.240;8.596;2023-05-07T07:43:23;3.40;;;2.70;;
3689;SDS011;1861;50.240;8.596;2023-05-07T07:45:52;2.40;;;2.20;;
3689;SDS011;1861;50.240;8.596;2023-05-07T07:48:22;5.33;;;2.70;;
3689;SDS011;1861;50.240;8.596;2023-05-07T07:50:50;3.53;;;2.90;;
3689;SDS011;1861;50.240;8.596;2023-05-07T07:53:18;2.87;;;2.50;;
3689;SDS011;1861;50.240;8.596;2023-05-07T07:55:47;4.17;;;2.40;;
3689;SDS011;1861;50.240;8.596;2023-05-07T07:58:18;2.57;;;2.37;;
3689;SDS011;1861;50.240;8.596;2023-05-07T08:00:46;2.03;;;1.93;;
3689;SDS011;1861;50.240;8.596;2023-05-07T08:03:15;2.63;;;2.20;;
3689;SDS011;1861;50.240;8.596;2023-05-07T08:05:48;3.40;;;2.33;;
3689;SDS011;1861;50.240;8.596;2023-05-07T08:08:17;3.13;;;2.87;;
3689;SDS011;1861;50.240;8.596;2023-05-07T08:10:46;3.60;;;2.63;;
3689;SDS011;1861;50.240;8.596;2023-05-07T08:13:23;4.93;;;2.90;;
3689;SDS011;1861;50.240;8.596;2023-05-07T08:15:52;3.03;;;2.40;;
3689;SDS011;1861;50.240;8.596;2023-05-07T08:18:21;2.70;;;2.50;;
3689;SDS011;1861;50.240;8.596;2023-05-07T08:20:52;5.60;;;2.60;;
3689;SDS011;1861;50.240;8.596;2023-05-07T08:23:24;25.07;;;10.57;;
3689;SDS011;1861;50.240;8.596;2023-05-07T08:25:53;7.30;;;3.40;;
3689;SDS011;1861;50.240;8.596;2023-05-07T08:28:22;3.43;;;2.97;;
3689;SDS011;1861;50.240;8.596;2023-05-07T08:30:51;6.13;;;2.90;;
3689;SDS011;1861;50.240;8.596;2023-05-07T08:33:19;2.83;;;2.50;;
3689;SDS011;1861;50.240;8.596;2023-05-07T08:35:48;5.40;;;2.50;;
3689;SDS011;1861;50.240;8.596;2023-05-07T08:38:18;3.77;;;3.03;;
3689;SDS011;1861;50.240;8.596;2023-05-07T08:40:47;5.27;;;3.03;;
3689;SDS011;1861;50.240;8.596;2023-05-07T08:43:18;7.60;;;3.13;;
3689;SDS011;1861;50.240;8.596;2023-05-07T08:45:47;3.50;;;2.90;;
3689;SDS011;1861;50.240;8.596;2023-05-07T08:48:20;4.80;;;3.73;;
3689;SDS011;1861;50.240;8.596;2023-05-07T08:50:58;2.87;;;2.67;;
3689;SDS011;1861;50.240;8.596;2023-05-07T08:53:28;4.50;;;2.97;;
3689;SDS011;1861;50.240;8.596;2023-05-07T08:55:57;3.60;;;3.00;;
3689;SDS011;1861;50.240;8.596;2023-05-07T08:58:28;4.23;;;3.83;;
3689;SDS011;1861;50.240;8.596;2023-05-07T09:00:56;4.23;;;3.33;;
3689;SDS011;1861;50.240;8.596;2023-05-07T09:03:25;3.30;;;2.83;;
3689;SDS011;1861;50.240;8.596;2023-05-07T09:05:55;4.63;;;3.33;;
3689;SDS011;1861;50.240;8.596;2023-05-07T09:08:25;4.00;;;3.30;;
3689;SDS011;1861;50.240;8.596;2023-05-07T09:10:58;3.47;;;2.47;;
3689;SDS011;1861;50.240;8.596;2023-05-07T09:13:28;4.80;;;3.20;;
3689;SDS011;1861;50.240;8.596;2023-05-07T09:15:58;8.60;;;3.07;;
3689;SDS011;1861;50.240;8.596;2023-05-07T09:18:41;3.80;;;3.40;;
3689;SDS011;1861;50.240;8.596;2023-05-07T09:21:14;4.90;;;3.43;;
3689;SDS011;1861;50.240;8.596;2023-05-07T09:23:44;3.37;;;3.07;;
3689;SDS011;1861;50.240;8.596;2023-05-07T09:26:15;4.60;;;3.10;;
3689;SDS011;1861;50.240;8.596;2023-05-07T09:28:43;5.00;;;3.03;;
3689;SDS011;1861;50.240;8.596;2023-05-07T09:31:13;4.80;;;3.00;;
3689;SDS011;1861;50.240;8.596;2023-05-07T09:33:44;3.60;;;2.87;;
3689;SDS011;1861;50.240;8.596;2023-05-07T09:36:14;3.00;;;2.60;;
3689;SDS011;1861;50.240;8.596;2023-05-07T09:38:42;3.33;;;3.03;;
3689;SDS011;1861;50.240;8.596;2023-05-07T09:41:11;4.07;;;3.40;;
3689;SDS011;1861;50.240;8.596;2023-05-07T09:44:04;6.20;;;3.60;;
3689;SDS011;1861;50.240;8.596;2023-05-07T09:46:39;3.70;;;3.30;;
3689;SDS011;1861;50.240;8.596;2023-05-07T09:49:19;5.00;;;3.20;;
3689;SDS011;1861;50.240;8.596;2023-05-07T09:51:52;2.97;;;2.77;;
3689;SDS011;1861;50.240;8.596;2023-05-07T09:54:23;3.83;;;3.07;;
3689;SDS011;1861;50.240;8.596;2023-05-07T09:56:54;5.20;;;3.60;;
3689;SDS011;1861;50.240;8.596;2023-05-07T09:59:26;3.83;;;3.47;;
3689;SDS011;1861;50.240;8.596;2023-05-07T10:01:58;4.73;;;3.27;;
3689;SDS011;1861;50.240;8.596;2023-05-07T10:04:34;3.20;;;2.90;;
3689;SDS011;1861;50.240;8.596;2023-05-07T10:07:04;5.10;;;3.43;;
3689;SDS011;1861;50.240;8.596;2023-05-07T10:09:34;5.80;;;3.53;;
3689;SDS011;1861;50.240;8.596;2023-05-07T10:12:07;2.90;;;2.67;;
3689;SDS011;1861;50.240;8.596;2023-05-07T10:14:38;4.40;;;3.03;;
3689;SDS011;1861;50.240;8.596;2023-05-07T10:17:06;4.03;;;3.50;;
3689;SDS011;1861;50.240;8.596;2023-05-07T10:19:35;5.40;;;3.27;;
3689;SDS011;1861;50.240;8.596;2023-05-07T10:22:05;3.80;;;2.73;;
3689;SDS011;1861;50.240;8.596;2023-05-07T10:24:40;3.33;;;2.70;;
3689;SDS011;1861;50.240;8.596;2023-05-07T10:27:14;5.20;;;2.60;;
3689;SDS011;1861;50.240;8.596;2023-05-07T10:29:52;3.00;;;2.70;;
3689;SDS011;1861;50.240;8.596;2023-05-07T10:32:34;9.57;;;3.00;;
3689;SDS011;1861;50.240;8.596;2023-05-07T10:35:10;3.20;;;2.90;;
3689;SDS011;1861;50.240;8.596;2023-05-07T10:37:46;3.40;;;3.10;;
3689;SDS011;1861;50.240;8.596;2023-05-07T10:40:17;7.67;;;2.73;;
3689;SDS011;1861;50.240;8.596;2023-05-07T10:42:55;3.70;;;3.30;;
3689;SDS011;1861;50.240;8.596;2023-05-07T10:45:29;2.90;;;2.60;;
3689;SDS011;1861;50.240;8.596;2023-05-07T10:48:06;3.10;;;2.60;;
3689;SDS011;1861;50.240;8.596;2023-05-07T10:50:44;3.93;;;2.90;;
3689;SDS011;1861;50.240;8.596;2023-05-07T10:53:23;3.67;;;3.07;;
3689;SDS011;1861;50.240;8.596;2023-05-07T10:56:26;5.90;;;3.10;;
3689;SDS011;1861;50.240;8.596;2023-05-07T11:02:14;4.03;;;3.13;;
3689;SDS011;1861;50.240;8.596;2023-05-07T11:04:57;3.47;;;3.10;;
3689;SDS011;1861;50.240;8.596;2023-05-07T11:07:59;2.40;;;2.20;;
3689;SDS011;1861;50.240;8.596;2023-05-07T11:10:47;2.93;;;2.57;;
3689;SDS011;1861;50.240;8.596;2023-05-07T11:13:41;2.97;;;2.60;;
3689;SDS011;1861;50.240;8.596;2023-05-07T11:16:19;4.67;;;3.17;;
3689;SDS011;1861;50.240;8.596;2023-05-07T11:18:54;3.67;;;3.07;;
3689;SDS011;1861;50.240;8.596;2023-05-07T11:21:32;3.47;;;3.17;;
3689;SDS011;1861;50.240;8.596;2023-05-07T11:24:22;4.47;;;3.10;;
3689;SDS011;1861;50.240;8.596;2023-05-07T11:26:54;3.00;;;2.70;;
3689;SDS011;1861;50.240;8.596;2023-05-07T11:29:24;3.30;;;3.00;;
3689;SDS011;1861;50.240;8.596;2023-05-07T11:31:58;4.70;;;3.10;;
3689;SDS011;1861;50.240;8.596;2023-05-07T11:34:33;4.50;;;3.37;;
3689;SDS011;1861;50.240;8.596;2023-05-07T11:37:02;4.00;;;3.40;;
3689;SDS011;1861;50.240;8.596;2023-05-07T11:39:41;5.10;;;3.90;;
3689;SDS011;1861;50.240;8.596;2023-05-07T11:44:55;3.00;;;2.80;;
3689;SDS011;1861;50.240;8.596;2023-05-07T11:47:23;4.30;;;3.53;;
3689;SDS011;1861;50.240;8.596;2023-05-07T11:49:54;4.53;;;2.50;;
3689;SDS011;1861;50.240;8.596;2023-05-07T11:52:22;3.20;;;2.90;;
3689;SDS011;1861;50.240;8.596;2023-05-07T11:54:52;4.90;;;3.00;;
3689;SDS011;1861;50.240;8.596;2023-05-07T11:57:21;3.40;;;3.10;;
3689;SDS011;1861;50.240;8.596;2023-05-07T11:59:52;2.53;;;2.30;;
3689;SDS011;1861;50.240;8.596;2023-05-07T12:02:21;3.00;;;2.70;;
3689;SDS011;1861;50.240;8.596;2023-05-07T12:04:51;2.50;;;2.30;;
3689;SDS011;1861;50.240;8.596;2023-05-07T12:07:21;2.27;;;2.07;;
3689;SDS011;1861;50.240;8.596;2023-05-07T12:09:51;3.90;;;2.50;;
3689;SDS011;1861;50.240;8.596;2023-05-07T12:12:19;3.30;;;2.50;;
3689;SDS011;1861;50.240;8.596;2023-05-07T12:14:47;4.80;;;3.37;;
3689;SDS011;1861;50.240;8.596;2023-05-07T12:17:15;4.13;;;2.40;;
3689;SDS011;1861;50.240;8.596;2023-05-07T12:19:44;4.10;;;2.80;;
3689;SDS011;1861;50.240;8.596;2023-05-07T12:22:14;2.60;;;2.40;;
3689;SDS011;1861;50.240;8.596;2023-05-07T12:24:43;4.20;;;2.07;;
3689;SDS011;1861;50.240;8.596;2023-05-07T12:27:12;3.23;;;2.80;;
3689;SDS011;1861;50.240;8.596;2023-05-07T12:29:43;4.33;;;3.63;;
3689;SDS011;1861;50.240;8.596;2023-05-07T12:32:13;3.90;;;3.13;;
3689;SDS011;1861;50.240;8.596;2023-05-07T12:34:42;3.93;;;3.10;;
3689;SDS011;1861;50.240;8.596;2023-05-07T12:37:11;4.43;;;3.07;;
3689;SDS011;1861;50.240;8.596;2023-05-07T12:39:46;5.23;;;3.10;;
3689;SDS011;1861;50.240;8.596;2023-05-07T12:42:15;3.10;;;2.80;;
3689;SDS011;1861;50.240;8.596;2023-05-07T12:44:45;2.57;;;2.37;;
3689;SDS011;1861;50.240;8.596;2023-05-07T12:47:14;3.20;;;2.90;;
3689;SDS011;1861;50.240;8.596;2023-05-07T12:49:42;3.77;;;2.90;;
3689;SDS011;1861;50.240;8.596;2023-05-07T12:52:12;6.60;;;4.87;;
3689;SDS011;1861;50.240;8.596;2023-05-07T12:54:40;4.10;;;3.10;;
3689;SDS011;1861;50.240;8.596;2023-05-07T12:57:10;4.60;;;3.13;;
3689;SDS011;1861;50.240;8.596;2023-05-07T12:59:38;3.30;;;2.83;;
3689;SDS011;1861;50.240;8.596;2023-05-07T13:02:07;3.80;;;2.87;;
3689;SDS011;1861;50.240;8.596;2023-05-07T13:04:37;3.00;;;2.60;;
3689;SDS011;1861;50.240;8.596;2023-05-07T13:07:06;2.80;;;2.50;;
3689;SDS011;1861;50.240;8.596;2023-05-07T13:09:34;2.80;;;2.60;;
3689;SDS011;1861;50.240;8.596;2023-05-07T13:12:03;3.60;;;3.10;;
3689;SDS011;1861;50.240;8.596;2023-05-07T13:14:33;7.90;;;2.63;;
3689;SDS011;1861;50.240;8.596;2023-05-07T13:17:01;3.57;;;3.27;;
3689;SDS011;1861;50.240;8.596;2023-05-07T13:19:29;3.53;;;3.20;;
3689;SDS011;1861;50.240;8.596;2023-05-07T13:21:57;2.97;;;2.63;;
3689;SDS011;1861;50.240;8.596;2023-05-07T13:24:26;2.70;;;2.50;;
3689;SDS011;1861;50.240;8.596;2023-05-07T13:26:54;4.67;;;3.10;;
3689;SDS011;1861;50.240;8.596;2023-05-07T13:29:22;3.53;;;2.57;;
3689;SDS011;1861;50.240;8.596;2023-05-07T13:31:56;3.43;;;3.00;;
3689;SDS011;1861;50.240;8.596;2023-05-07T13:34:25;3.47;;;2.80;;
3689;SDS011;1861;50.240;8.596;2023-05-07T13:36:53;3.17;;;2.87;;
3689;SDS011;1861;50.240;8.596;2023-05-07T13:39:21;3.13;;;2.67;;
3689;SDS011;1861;50.240;8.596;2023-05-07T13:41:49;2.60;;;2.40;;
3689;SDS011;1861;50.240;8.596;2023-05-07T13:44:17;2.77;;;2.57;;
3689;SDS011;1861;50.240;8.596;2023-05-07T13:46:45;3.67;;;3.37;;
3689;SDS011;1861;50.240;8.596;2023-05-07T13:49:15;5.40;;;3.20;;
3689;SDS011;1861;50.240;8.596;2023-05-07T13:51:43;3.13;;;2.80;;
3689;SDS011;1861;50.240;8.596;2023-05-07T13:54:11;3.60;;;2.57;;
3689;SDS011;1861;50.240;8.596;2023-05-07T13:56:39;2.67;;;2.40;;
3689;SDS011;1861;50.240;8.596;2023-05-07T13:59:07;2.17;;;2.03;;
3689;SDS011;1861;50.240;8.596;2023-05-07T14:01:36;3.80;;;2.63;;
3689;SDS011;1861;50.240;8.596;2023-05-07T14:04:04;2.97;;;2.37;;
3689;SDS011;1861;50.240;8.596;2023-05-07T14:06:33;3.40;;;2.93;;
3689;SDS011;1861;50.240;8.596;2023-05-07T14:09:01;3.50;;;3.00;;
3689;SDS011;1861;50.240;8.596;2023-05-07T14:11:30;3.10;;;2.40;;
3689;SDS011;1861;50.240;8.596;2023-05-07T14:14:01;2.47;;;2.27;;
3689;SDS011;1861;50.240;8.596;2023-05-07T14:16:29;3.60;;;2.73;;
3689;SDS011;1861;50.240;8.596;2023-05-07T14:18:57;2.70;;;2.50;;
3689;SDS011;1861;50.240;8.596;2023-05-07T14:21:25;2.50;;;2.30;;
3689;SDS011;1861;50.240;8.596;2023-05-07T14:23:55;2.40;;;2.20;;
3689;SDS011;1861;50.240;8.596;2023-05-07T14:26:23;2.73;;;2.50;;
3689;SDS011;1861;50.240;8.596;2023-05-07T14:28:53;3.30;;;2.70;;
3689;SDS011;1861;50.240;8.596;2023-05-07T14:31:23;3.43;;;2.60;;
3689;SDS011;1861;50.240;8.596;2023-05-07T14:33:51;2.50;;;2.07;;
3689;SDS011;1861;50.240;8.596;2023-05-07T14:36:19;2.50;;;2.30;;
3689;SDS011;1861;50.240;8.596;2023-05-07T14:38:49;3.60;;;2.60;;
3689;SDS011;1861;50.240;8.596;2023-05-07T14:41:18;3.77;;;2.40;;
3689;SDS011;1861;50.240;8.596;2023-05-07T14:43:47;2.40;;;2.20;;
3689;SDS011;1861;50.240;8.596;2023-05-07T14:46:16;2.50;;;2.30;;
3689;SDS011;1861;50.240;8.596;2023-05-07T14:48:45;2.70;;;2.50;;
3689;SDS011;1861;50.240;8.596;2023-05-07T14:51:13;3.50;;;2.77;;
3689;SDS011;1861;50.240;8.596;2023-05-07T14:53:41;3.00;;;2.60;;
3689;SDS011;1861;50.240;8.596;2023-05-07T14:56:10;4.53;;;2.53;;
3689;SDS011;1861;50.240;8.596;2023-05-07T14:58:39;3.23;;;2.67;;
3689;SDS011;1861;50.240;8.596;2023-05-07T15:01:07;3.23;;;2.47;;
3689;SDS011;1861;50.240;8.596;2023-05-07T15:03:36;4.10;;;2.73;;
3689;SDS011;1861;50.240;8.596;2023-05-07T15:06:04;2.70;;;2.30;;
3689;SDS011;1861;50.240;8.596;2023-05-07T15:08:32;3.70;;;3.27;;
3689;SDS011;1861;50.240;8.596;2023-05-07T15:11:00;2.70;;;2.33;;
3689;SDS011;1861;50.240;8.596;2023-05-07T15:13:28;2.50;;;2.30;;
3689;SDS011;1861;50.240;8.596;2023-05-07T15:15:58;2.70;;;2.20;;
3689;SDS011;1861;50.240;8.596;2023-05-07T15:18:26;4.07;;;2.60;;
3689;SDS011;1861;50.240;8.596;2023-05-07T15:20:55;3.00;;;2.80;;
3689;SDS011;1861;50.240;8.596;2023-05-07T15:23:24;6.50;;;2.50;;
3689;SDS011;1861;50.240;8.596;2023-05-07T15:25:52;2.67;;;2.43;;
3689;SDS011;1861;50.240;8.596;2023-05-07T15:28:20;2.63;;;2.20;;
3689;SDS011;1861;50.240;8.596;2023-05-07T15:30:52;2.93;;;2.17;;
3689;SDS011;1861;50.240;8.596;2023-05-07T15:33:23;3.40;;;2.33;;
3689;SDS011;1861;50.240;8.596;2023-05-07T15:35:51;2.13;;;1.93;;
3689;SDS011;1861;50.240;8.596;2023-05-07T15:38:19;2.33;;;2.13;;
3689;SDS011;1861;50.240;8.596;2023-05-07T15:40:47;1.70;;;1.60;;